sensor_id;sensor_type;location;lat;lon;timestamp;P1;durP1;ratioP1;P2;durP2;ratioP2
13941;SDS011;7043;51.630;7.254;2024-02-16T00:02:11;2.40;;;1.60;;
13941;SDS011;7043;51.630;7.254;2024-02-16T00:04:37;3.47;;;1.80;;
13941;SDS011;7043;51.630;7.254;2024-02-16T00:07:03;2.78;;;1.67;;
13941;SDS011;7043;51.630;7.254;2024-02-16T00:09:29;2.63;;;1.60;;
13941;SDS011;7043;51.630;7.254;2024-02-16T00:11:55;2.10;;;1.73;;
13941;SDS011;7043;51.630;7.254;2024-02-16T00:14:21;2.92;;;1.70;;
13941;SDS011;7043;51.630;7.254;2024-02-16T00:16:47;2.22;;;1.63;;
13941;SDS011;7043;51.630;7.254;2024-02-16T00:19:13;2.87;;;1.60;;
13941;SDS011;7043;51.630;7.254;2024-02-16T00:21:39;3.63;;;1.83;;
13941;SDS011;7043;51.630;7.254;2024-02-16T00:24:07;3.78;;;1.83;;
13941;SDS011;7043;51.630;7.254;2024-02-16T00:26:33;3.33;;;1.75;;
13941;SDS011;7043;51.630;7.254;2024-02-16T00:28:59;2.55;;;1.77;;
13941;SDS011;7043;51.630;7.254;2024-02-16T00:31:25;2.20;;;1.80;;
13941;SDS011;7043;51.630;7.254;2024-02-16T00:33:51;3.13;;;1.70;;
13941;SDS011;7043;51.630;7.254;2024-02-16T00:36:17;3.20;;;1.77;;
13941;SDS011;7043;51.630;7.254;2024-02-16T00:38:43;3.35;;;1.90;;
13941;SDS011;7043;51.630;7.254;2024-02-16T00:41:21;3.90;;;1.77;;
13941;SDS011;7043;51.630;7.254;2024-02-16T00:43:47;4.00;;;2.20;;
13941;SDS011;7043;51.630;7.254;2024-02-16T00:46:13;2.33;;;1.83;;
13941;SDS011;7043;51.630;7.254;2024-02-16T00:48:39;3.10;;;2.00;;
13941;SDS011;7043;51.630;7.254;2024-02-16T00:51:05;2.47;;;1.80;;
13941;SDS011;7043;51.630;7.254;2024-02-16T00:53:31;4.22;;;2.00;;
13941;SDS011;7043;51.630;7.254;2024-02-16T00:55:57;4.37;;;2.10;;
13941;SDS011;7043;51.630;7.254;2024-02-16T00:58:23;3.20;;;2.07;;
13941;SDS011;7043;51.630;7.254;2024-02-16T01:00:49;3.60;;;2.10;;
13941;SDS011;7043;51.630;7.254;2024-02-16T01:03:15;2.77;;;2.00;;
13941;SDS011;7043;51.630;7.254;2024-02-16T01:05:41;5.33;;;2.20;;
13941;SDS011;7043;51.630;7.254;2024-02-16T01:08:07;3.60;;;1.95;;
13941;SDS011;7043;51.630;7.254;2024-02-16T01:10:33;4.78;;;2.42;;
13941;SDS011;7043;51.630;7.254;2024-02-16T01:12:59;2.95;;;1.75;;
13941;SDS011;7043;51.630;7.254;2024-02-16T01:15:25;4.20;;;2.33;;
13941;SDS011;7043;51.630;7.254;2024-02-16T01:17:52;2.45;;;1.83;;
13941;SDS011;7043;51.630;7.254;2024-02-16T01:20:18;2.60;;;1.90;;
13941;SDS011;7043;51.630;7.254;2024-02-16T01:22:45;3.88;;;2.40;;
13941;SDS011;7043;51.630;7.254;2024-02-16T01:25:11;2.27;;;1.97;;
13941;SDS011;7043;51.630;7.254;2024-02-16T01:27:37;4.55;;;2.20;;
13941;SDS011;7043;51.630;7.254;2024-02-16T01:30:06;2.47;;;2.10;;
13941;SDS011;7043;51.630;7.254;2024-02-16T01:32:32;4.45;;;2.45;;
13941;SDS011;7043;51.630;7.254;2024-02-16T01:34:59;4.07;;;1.77;;
13941;SDS011;7043;51.630;7.254;2024-02-16T01:37:25;3.57;;;1.90;;
13941;SDS011;7043;51.630;7.254;2024-02-16T01:39:51;2.77;;;1.80;;
13941;SDS011;7043;51.630;7.254;2024-02-16T01:42:17;5.20;;;2.33;;
13941;SDS011;7043;51.630;7.254;2024-02-16T01:44:43;2.33;;;1.80;;
13941;SDS011;7043;51.630;7.254;2024-02-16T01:47:09;2.60;;;1.90;;
13941;SDS011;7043;51.630;7.254;2024-02-16T01:49:35;5.10;;;2.28;;
13941;SDS011;7043;51.630;7.254;2024-02-16T01:52:01;2.53;;;1.90;;
13941;SDS011;7043;51.630;7.254;2024-02-16T01:54:28;3.08;;;1.90;;
13941;SDS011;7043;51.630;7.254;2024-02-16T01:56:54;3.17;;;2.10;;
13941;SDS011;7043;51.630;7.254;2024-02-16T01:59:20;3.90;;;1.90;;
13941;SDS011;7043;51.630;7.254;2024-02-16T02:01:46;3.67;;;2.07;;
13941;SDS011;7043;51.630;7.254;2024-02-16T02:04:12;4.47;;;2.00;;
13941;SDS011;7043;51.630;7.254;2024-02-16T02:06:38;4.20;;;2.10;;
13941;SDS011;7043;51.630;7.254;2024-02-16T02:09:04;3.00;;;1.70;;
13941;SDS011;7043;51.630;7.254;2024-02-16T02:11:30;2.17;;;1.65;;
13941;SDS011;7043;51.630;7.254;2024-02-16T02:13:56;3.03;;;1.83;;
13941;SDS011;7043;51.630;7.254;2024-02-16T02:16:22;3.22;;;1.88;;
13941;SDS011;7043;51.630;7.254;2024-02-16T02:18:51;3.25;;;1.80;;
13941;SDS011;7043;51.630;7.254;2024-02-16T02:21:17;2.97;;;1.80;;
13941;SDS011;7043;51.630;7.254;2024-02-16T02:23:43;3.73;;;1.90;;
13941;SDS011;7043;51.630;7.254;2024-02-16T02:26:09;2.57;;;1.70;;
13941;SDS011;7043;51.630;7.254;2024-02-16T02:28:35;2.90;;;1.90;;
13941;SDS011;7043;51.630;7.254;2024-02-16T02:31:01;3.57;;;2.00;;
13941;SDS011;7043;51.630;7.254;2024-02-16T02:33:28;4.17;;;2.30;;
13941;SDS011;7043;51.630;7.254;2024-02-16T02:35:54;2.67;;;1.70;;
13941;SDS011;7043;51.630;7.254;2024-02-16T02:38:20;2.63;;;1.80;;
13941;SDS011;7043;51.630;7.254;2024-02-16T02:40:46;4.37;;;1.80;;
13941;SDS011;7043;51.630;7.254;2024-02-16T02:43:12;2.53;;;1.83;;
13941;SDS011;7043;51.630;7.254;2024-02-16T02:45:39;3.40;;;1.50;;
13941;SDS011;7043;51.630;7.254;2024-02-16T02:48:05;3.67;;;1.77;;
13941;SDS011;7043;51.630;7.254;2024-02-16T02:50:31;3.33;;;1.90;;
13941;SDS011;7043;51.630;7.254;2024-02-16T02:52:57;2.03;;;1.83;;
13941;SDS011;7043;51.630;7.254;2024-02-16T02:55:23;3.43;;;1.70;;
13941;SDS011;7043;51.630;7.254;2024-02-16T02:57:49;2.67;;;2.17;;
13941;SDS011;7043;51.630;7.254;2024-02-16T03:00:15;2.80;;;1.97;;
13941;SDS011;7043;51.630;7.254;2024-02-16T03:02:41;2.53;;;1.80;;
13941;SDS011;7043;51.630;7.254;2024-02-16T03:05:09;4.73;;;2.23;;
13941;SDS011;7043;51.630;7.254;2024-02-16T03:07:36;3.60;;;1.93;;
13941;SDS011;7043;51.630;7.254;2024-02-16T03:10:02;5.40;;;2.03;;
13941;SDS011;7043;51.630;7.254;2024-02-16T03:12:28;4.07;;;2.30;;
13941;SDS011;7043;51.630;7.254;2024-02-16T03:14:54;3.47;;;2.17;;
13941;SDS011;7043;51.630;7.254;2024-02-16T03:17:20;3.77;;;2.20;;
13941;SDS011;7043;51.630;7.254;2024-02-16T03:19:46;5.83;;;2.17;;
13941;SDS011;7043;51.630;7.254;2024-02-16T03:22:12;2.53;;;2.10;;
13941;SDS011;7043;51.630;7.254;2024-02-16T03:24:38;2.77;;;1.73;;
13941;SDS011;7043;51.630;7.254;2024-02-16T03:27:04;3.57;;;2.23;;
13941;SDS011;7043;51.630;7.254;2024-02-16T03:29:30;2.73;;;1.93;;
13941;SDS011;7043;51.630;7.254;2024-02-16T03:31:56;2.73;;;2.00;;
13941;SDS011;7043;51.630;7.254;2024-02-16T03:34:23;3.67;;;1.80;;
13941;SDS011;7043;51.630;7.254;2024-02-16T03:36:49;2.40;;;1.90;;
13941;SDS011;7043;51.630;7.254;2024-02-16T03:39:15;2.10;;;1.90;;
13941;SDS011;7043;51.630;7.254;2024-02-16T03:41:45;3.20;;;2.00;;
13941;SDS011;7043;51.630;7.254;2024-02-16T03:44:14;2.80;;;1.83;;
13941;SDS011;7043;51.630;7.254;2024-02-16T03:46:43;2.33;;;1.70;;
13941;SDS011;7043;51.630;7.254;2024-02-16T03:49:09;2.40;;;1.73;;
13941;SDS011;7043;51.630;7.254;2024-02-16T03:51:35;3.83;;;2.07;;
13941;SDS011;7043;51.630;7.254;2024-02-16T03:54:02;3.67;;;1.90;;
13941;SDS011;7043;51.630;7.254;2024-02-16T03:56:29;2.73;;;1.77;;
13941;SDS011;7043;51.630;7.254;2024-02-16T03:58:55;2.37;;;1.53;;
13941;SDS011;7043;51.630;7.254;2024-02-16T04:01:21;2.78;;;1.60;;
13941;SDS011;7043;51.630;7.254;2024-02-16T04:03:47;3.60;;;2.20;;
13941;SDS011;7043;51.630;7.254;2024-02-16T04:06:13;3.07;;;2.20;;
13941;SDS011;7043;51.630;7.254;2024-02-16T04:08:39;2.05;;;1.73;;
13941;SDS011;7043;51.630;7.254;2024-02-16T04:11:05;3.87;;;2.03;;
13941;SDS011;7043;51.630;7.254;2024-02-16T04:13:31;3.45;;;1.92;;
13941;SDS011;7043;51.630;7.254;2024-02-16T04:15:57;3.73;;;2.03;;
13941;SDS011;7043;51.630;7.254;2024-02-16T04:18:23;2.70;;;1.90;;
13941;SDS011;7043;51.630;7.254;2024-02-16T04:20:49;3.20;;;1.67;;
13941;SDS011;7043;51.630;7.254;2024-02-16T04:23:15;4.28;;;1.88;;
13941;SDS011;7043;51.630;7.254;2024-02-16T04:25:41;3.38;;;2.10;;
13941;SDS011;7043;51.630;7.254;2024-02-16T04:28:07;3.42;;;2.00;;
13941;SDS011;7043;51.630;7.254;2024-02-16T04:30:34;3.73;;;2.13;;
13941;SDS011;7043;51.630;7.254;2024-02-16T04:33:00;4.67;;;2.30;;
13941;SDS011;7043;51.630;7.254;2024-02-16T04:35:26;3.20;;;1.80;;
13941;SDS011;7043;51.630;7.254;2024-02-16T04:37:52;3.13;;;2.25;;
13941;SDS011;7043;51.630;7.254;2024-02-16T04:40:18;3.42;;;2.10;;
13941;SDS011;7043;51.630;7.254;2024-02-16T04:42:44;4.13;;;2.15;;
13941;SDS011;7043;51.630;7.254;2024-02-16T04:45:11;4.38;;;1.90;;
13941;SDS011;7043;51.630;7.254;2024-02-16T04:47:37;3.10;;;1.80;;
13941;SDS011;7043;51.630;7.254;2024-02-16T04:50:04;3.00;;;2.00;;
13941;SDS011;7043;51.630;7.254;2024-02-16T04:52:30;2.37;;;1.90;;
13941;SDS011;7043;51.630;7.254;2024-02-16T04:54:56;5.22;;;2.10;;
13941;SDS011;7043;51.630;7.254;2024-02-16T04:57:22;3.30;;;1.90;;
13941;SDS011;7043;51.630;7.254;2024-02-16T04:59:48;4.17;;;2.03;;
13941;SDS011;7043;51.630;7.254;2024-02-16T05:02:14;2.90;;;1.83;;
13941;SDS011;7043;51.630;7.254;2024-02-16T05:04:40;2.60;;;2.37;;
13941;SDS011;7043;51.630;7.254;2024-02-16T05:07:06;2.50;;;2.00;;
13941;SDS011;7043;51.630;7.254;2024-02-16T05:09:32;3.80;;;2.37;;
13941;SDS011;7043;51.630;7.254;2024-02-16T05:11:58;4.13;;;1.90;;
13941;SDS011;7043;51.630;7.254;2024-02-16T05:14:24;4.83;;;2.33;;
13941;SDS011;7043;51.630;7.254;2024-02-16T05:16:50;2.58;;;2.15;;
13941;SDS011;7043;51.630;7.254;2024-02-16T05:19:16;3.83;;;2.27;;
13941;SDS011;7043;51.630;7.254;2024-02-16T05:21:43;2.78;;;2.30;;
13941;SDS011;7043;51.630;7.254;2024-02-16T05:24:09;3.13;;;2.15;;
13941;SDS011;7043;51.630;7.254;2024-02-16T05:26:36;4.60;;;2.58;;
13941;SDS011;7043;51.630;7.254;2024-02-16T05:29:03;4.43;;;2.27;;
13941;SDS011;7043;51.630;7.254;2024-02-16T05:31:29;2.43;;;2.17;;
13941;SDS011;7043;51.630;7.254;2024-02-16T05:33:56;4.37;;;2.60;;
13941;SDS011;7043;51.630;7.254;2024-02-16T05:36:22;3.13;;;2.80;;
13941;SDS011;7043;51.630;7.254;2024-02-16T05:38:55;4.68;;;2.50;;
13941;SDS011;7043;51.630;7.254;2024-02-16T05:41:21;4.07;;;2.63;;
13941;SDS011;7043;51.630;7.254;2024-02-16T05:43:47;4.22;;;2.60;;
13941;SDS011;7043;51.630;7.254;2024-02-16T05:46:16;4.63;;;2.63;;
13941;SDS011;7043;51.630;7.254;2024-02-16T05:48:43;6.25;;;2.85;;
13941;SDS011;7043;51.630;7.254;2024-02-16T05:51:10;3.03;;;2.70;;
13941;SDS011;7043;51.630;7.254;2024-02-16T05:53:43;3.35;;;2.53;;
13941;SDS011;7043;51.630;7.254;2024-02-16T05:56:10;3.63;;;2.30;;
13941;SDS011;7043;51.630;7.254;2024-02-16T05:58:36;2.97;;;2.47;;
13941;SDS011;7043;51.630;7.254;2024-02-16T06:01:02;4.03;;;2.10;;
13941;SDS011;7043;51.630;7.254;2024-02-16T06:03:28;4.05;;;2.50;;
13941;SDS011;7043;51.630;7.254;2024-02-16T06:05:54;3.72;;;2.42;;
13941;SDS011;7043;51.630;7.254;2024-02-16T06:08:20;4.30;;;2.73;;
13941;SDS011;7043;51.630;7.254;2024-02-16T06:10:46;4.20;;;2.47;;
13941;SDS011;7043;51.630;7.254;2024-02-16T06:13:19;4.17;;;2.60;;
13941;SDS011;7043;51.630;7.254;2024-02-16T06:15:47;3.40;;;2.50;;
13941;SDS011;7043;51.630;7.254;2024-02-16T06:18:13;3.38;;;2.50;;
13941;SDS011;7043;51.630;7.254;2024-02-16T06:20:38;4.20;;;2.15;;
13941;SDS011;7043;51.630;7.254;2024-02-16T06:23:06;3.40;;;2.65;;
13941;SDS011;7043;51.630;7.254;2024-02-16T06:25:33;4.47;;;2.43;;
13941;SDS011;7043;51.630;7.254;2024-02-16T06:27:59;3.70;;;2.42;;
13941;SDS011;7043;51.630;7.254;2024-02-16T06:30:27;4.13;;;2.77;;
13941;SDS011;7043;51.630;7.254;2024-02-16T06:32:52;3.63;;;2.80;;
13941;SDS011;7043;51.630;7.254;2024-02-16T06:35:20;4.18;;;2.90;;
13941;SDS011;7043;51.630;7.254;2024-02-16T06:37:46;5.55;;;2.90;;
13941;SDS011;7043;51.630;7.254;2024-02-16T06:40:12;4.68;;;3.03;;
13941;SDS011;7043;51.630;7.254;2024-02-16T06:42:38;4.60;;;3.17;;
13941;SDS011;7043;51.630;7.254;2024-02-16T06:45:04;3.33;;;2.57;;
13941;SDS011;7043;51.630;7.254;2024-02-16T06:47:31;4.13;;;2.90;;
13941;SDS011;7043;51.630;7.254;2024-02-16T06:49:57;5.13;;;2.60;;
13941;SDS011;7043;51.630;7.254;2024-02-16T06:52:23;4.00;;;2.40;;
13941;SDS011;7043;51.630;7.254;2024-02-16T06:54:49;3.87;;;2.60;;
13941;SDS011;7043;51.630;7.254;2024-02-16T06:57:16;4.87;;;3.00;;
13941;SDS011;7043;51.630;7.254;2024-02-16T06:59:42;4.88;;;2.83;;
13941;SDS011;7043;51.630;7.254;2024-02-16T07:02:08;5.50;;;3.00;;
13941;SDS011;7043;51.630;7.254;2024-02-16T07:04:36;4.60;;;3.07;;
13941;SDS011;7043;51.630;7.254;2024-02-16T07:07:02;5.67;;;3.07;;
13941;SDS011;7043;51.630;7.254;2024-02-16T07:09:29;4.93;;;3.10;;
13941;SDS011;7043;51.630;7.254;2024-02-16T07:11:55;4.17;;;3.40;;
13941;SDS011;7043;51.630;7.254;2024-02-16T07:14:21;4.07;;;2.63;;
13941;SDS011;7043;51.630;7.254;2024-02-16T07:16:47;3.97;;;3.20;;
13941;SDS011;7043;51.630;7.254;2024-02-16T07:19:13;3.67;;;3.07;;
13941;SDS011;7043;51.630;7.254;2024-02-16T07:21:39;5.07;;;3.10;;
13941;SDS011;7043;51.630;7.254;2024-02-16T07:24:05;4.28;;;3.05;;
13941;SDS011;7043;51.630;7.254;2024-02-16T07:26:31;3.37;;;2.80;;
13941;SDS011;7043;51.630;7.254;2024-02-16T07:28:58;4.20;;;3.10;;
13941;SDS011;7043;51.630;7.254;2024-02-16T07:31:24;5.30;;;2.87;;
13941;SDS011;7043;51.630;7.254;2024-02-16T07:33:50;5.00;;;2.57;;
13941;SDS011;7043;51.630;7.254;2024-02-16T07:36:16;5.05;;;2.50;;
13941;SDS011;7043;51.630;7.254;2024-02-16T07:38:44;4.88;;;2.50;;
13941;SDS011;7043;51.630;7.254;2024-02-16T07:41:10;3.77;;;2.87;;
13941;SDS011;7043;51.630;7.254;2024-02-16T07:43:36;5.83;;;2.93;;
13941;SDS011;7043;51.630;7.254;2024-02-16T07:46:02;5.60;;;2.60;;
13941;SDS011;7043;51.630;7.254;2024-02-16T07:48:28;3.63;;;2.70;;
13941;SDS011;7043;51.630;7.254;2024-02-16T07:50:54;4.07;;;2.90;;
13941;SDS011;7043;51.630;7.254;2024-02-16T07:53:23;3.23;;;2.43;;
13941;SDS011;7043;51.630;7.254;2024-02-16T07:55:49;5.45;;;2.50;;
13941;SDS011;7043;51.630;7.254;2024-02-16T07:58:15;4.70;;;2.70;;
13941;SDS011;7043;51.630;7.254;2024-02-16T08:00:41;3.97;;;2.83;;
13941;SDS011;7043;51.630;7.254;2024-02-16T08:03:06;4.67;;;2.70;;
13941;SDS011;7043;51.630;7.254;2024-02-16T08:05:33;4.25;;;2.50;;
13941;SDS011;7043;51.630;7.254;2024-02-16T08:07:59;6.38;;;2.42;;
13941;SDS011;7043;51.630;7.254;2024-02-16T08:10:25;4.03;;;2.67;;
13941;SDS011;7043;51.630;7.254;2024-02-16T08:12:51;3.17;;;2.35;;
13941;SDS011;7043;51.630;7.254;2024-02-16T08:15:17;4.28;;;2.50;;
13941;SDS011;7043;51.630;7.254;2024-02-16T08:17:50;3.70;;;2.53;;
13941;SDS011;7043;51.630;7.254;2024-02-16T08:20:17;4.88;;;2.72;;
13941;SDS011;7043;51.630;7.254;2024-02-16T08:22:43;2.95;;;2.20;;
13941;SDS011;7043;51.630;7.254;2024-02-16T08:25:09;5.22;;;2.53;;
13941;SDS011;7043;51.630;7.254;2024-02-16T08:27:35;5.07;;;2.45;;
13941;SDS011;7043;51.630;7.254;2024-02-16T08:30:03;5.57;;;3.00;;
13941;SDS011;7043;51.630;7.254;2024-02-16T08:32:29;3.30;;;2.67;;
13941;SDS011;7043;51.630;7.254;2024-02-16T08:34:55;4.88;;;3.05;;
13941;SDS011;7043;51.630;7.254;2024-02-16T08:37:23;3.77;;;2.30;;
13941;SDS011;7043;51.630;7.254;2024-02-16T08:39:50;5.13;;;2.40;;
13941;SDS011;7043;51.630;7.254;2024-02-16T08:42:16;5.43;;;2.50;;
13941;SDS011;7043;51.630;7.254;2024-02-16T08:44:42;4.30;;;2.57;;
13941;SDS011;7043;51.630;7.254;2024-02-16T08:47:08;5.20;;;2.87;;
13941;SDS011;7043;51.630;7.254;2024-02-16T08:49:34;7.03;;;2.78;;
13941;SDS011;7043;51.630;7.254;2024-02-16T08:52:00;3.05;;;2.53;;
13941;SDS011;7043;51.630;7.254;2024-02-16T08:54:26;5.32;;;3.72;;
13941;SDS011;7043;51.630;7.254;2024-02-16T08:56:55;4.10;;;2.40;;
13941;SDS011;7043;51.630;7.254;2024-02-16T08:59:21;3.08;;;2.30;;
13941;SDS011;7043;51.630;7.254;2024-02-16T09:01:47;4.90;;;2.83;;
13941;SDS011;7043;51.630;7.254;2024-02-16T09:04:13;4.35;;;2.42;;
13941;SDS011;7043;51.630;7.254;2024-02-16T09:06:40;3.20;;;2.40;;
13941;SDS011;7043;51.630;7.254;2024-02-16T09:09:06;7.28;;;2.53;;
13941;SDS011;7043;51.630;7.254;2024-02-16T09:11:32;6.55;;;2.78;;
13941;SDS011;7043;51.630;7.254;2024-02-16T09:13:59;6.18;;;2.47;;
13941;SDS011;7043;51.630;7.254;2024-02-16T09:16:25;5.55;;;2.97;;
13941;SDS011;7043;51.630;7.254;2024-02-16T09:18:51;3.90;;;2.60;;
13941;SDS011;7043;51.630;7.254;2024-02-16T09:21:17;4.80;;;2.78;;
13941;SDS011;7043;51.630;7.254;2024-02-16T09:23:44;5.55;;;3.00;;
13941;SDS011;7043;51.630;7.254;2024-02-16T09:26:10;5.10;;;3.30;;
13941;SDS011;7043;51.630;7.254;2024-02-16T09:28:40;5.63;;;3.33;;
13941;SDS011;7043;51.630;7.254;2024-02-16T09:31:09;6.43;;;3.40;;
13941;SDS011;7043;51.630;7.254;2024-02-16T09:33:35;4.97;;;3.10;;
13941;SDS011;7043;51.630;7.254;2024-02-16T09:36:01;4.97;;;2.90;;
13941;SDS011;7043;51.630;7.254;2024-02-16T09:38:27;6.00;;;3.25;;
13941;SDS011;7043;51.630;7.254;2024-02-16T09:40:53;5.63;;;2.67;;
13941;SDS011;7043;51.630;7.254;2024-02-16T09:43:25;5.05;;;2.65;;
13941;SDS011;7043;51.630;7.254;2024-02-16T09:45:57;5.13;;;2.88;;
13941;SDS011;7043;51.630;7.254;2024-02-16T09:48:25;4.82;;;2.80;;
13941;SDS011;7043;51.630;7.254;2024-02-16T09:50:55;3.90;;;2.55;;
13941;SDS011;7043;51.630;7.254;2024-02-16T09:53:23;6.13;;;2.83;;
13941;SDS011;7043;51.630;7.254;2024-02-16T09:55:49;5.38;;;2.67;;
13941;SDS011;7043;51.630;7.254;2024-02-16T09:58:16;2.83;;;2.33;;
13941;SDS011;7043;51.630;7.254;2024-02-16T10:03:25;4.53;;;2.88;;
13941;SDS011;7043;51.630;7.254;2024-02-16T10:05:52;4.93;;;3.00;;
13941;SDS011;7043;51.630;7.254;2024-02-16T10:08:18;5.75;;;2.97;;
13941;SDS011;7043;51.630;7.254;2024-02-16T10:10:45;5.13;;;3.03;;
13941;SDS011;7043;51.630;7.254;2024-02-16T10:13:11;6.38;;;2.80;;
13941;SDS011;7043;51.630;7.254;2024-02-16T10:15:37;4.35;;;2.83;;
13941;SDS011;7043;51.630;7.254;2024-02-16T10:18:03;4.50;;;2.85;;
13941;SDS011;7043;51.630;7.254;2024-02-16T10:20:31;3.42;;;2.63;;
13941;SDS011;7043;51.630;7.254;2024-02-16T10:23:07;4.45;;;2.60;;
13941;SDS011;7043;51.630;7.254;2024-02-16T10:25:37;6.22;;;3.28;;
13941;SDS011;7043;51.630;7.254;2024-02-16T10:28:08;7.00;;;2.95;;
13941;SDS011;7043;51.630;7.254;2024-02-16T10:30:38;6.03;;;3.08;;
13941;SDS011;7043;51.630;7.254;2024-02-16T10:33:07;4.63;;;2.78;;
13941;SDS011;7043;51.630;7.254;2024-02-16T10:35:34;5.22;;;2.80;;
13941;SDS011;7043;51.630;7.254;2024-02-16T10:38:04;5.63;;;3.20;;
13941;SDS011;7043;51.630;7.254;2024-02-16T10:40:33;7.07;;;3.10;;
13941;SDS011;7043;51.630;7.254;2024-02-16T10:43:03;5.75;;;3.00;;
13941;SDS011;7043;51.630;7.254;2024-02-16T10:45:34;4.70;;;3.10;;
13941;SDS011;7043;51.630;7.254;2024-02-16T10:48:03;6.68;;;3.50;;
13941;SDS011;7043;51.630;7.254;2024-02-16T10:50:30;6.18;;;3.08;;
13941;SDS011;7043;51.630;7.254;2024-02-16T10:52:56;5.95;;;3.33;;
13941;SDS011;7043;51.630;7.254;2024-02-16T10:55:23;7.50;;;3.33;;
13941;SDS011;7043;51.630;7.254;2024-02-16T10:57:49;7.22;;;3.35;;
13941;SDS011;7043;51.630;7.254;2024-02-16T11:00:19;4.95;;;2.83;;
13941;SDS011;7043;51.630;7.254;2024-02-16T11:05:20;4.97;;;3.38;;
13941;SDS011;7043;51.630;7.254;2024-02-16T11:07:46;5.35;;;3.30;;
13941;SDS011;7043;51.630;7.254;2024-02-16T11:10:12;5.80;;;3.33;;
13941;SDS011;7043;51.630;7.254;2024-02-16T11:12:38;5.97;;;3.33;;
13941;SDS011;7043;51.630;7.254;2024-02-16T11:15:11;6.13;;;3.40;;
13941;SDS011;7043;51.630;7.254;2024-02-16T11:17:37;5.82;;;3.42;;
13941;SDS011;7043;51.630;7.254;2024-02-16T11:20:03;6.50;;;3.92;;
13941;SDS011;7043;51.630;7.254;2024-02-16T11:22:32;4.82;;;3.20;;
13941;SDS011;7043;51.630;7.254;2024-02-16T11:25:04;6.40;;;4.00;;
13941;SDS011;7043;51.630;7.254;2024-02-16T11:27:31;6.93;;;3.80;;
13941;SDS011;7043;51.630;7.254;2024-02-16T11:29:59;8.40;;;3.95;;
13941;SDS011;7043;51.630;7.254;2024-02-16T11:32:25;7.07;;;3.47;;
13941;SDS011;7043;51.630;7.254;2024-02-16T11:34:51;5.80;;;3.78;;
13941;SDS011;7043;51.630;7.254;2024-02-16T11:37:17;5.30;;;3.58;;
13941;SDS011;7043;51.630;7.254;2024-02-16T11:39:43;5.97;;;3.70;;
13941;SDS011;7043;51.630;7.254;2024-02-16T11:42:12;5.57;;;4.43;;
13941;SDS011;7043;51.630;7.254;2024-02-16T11:44:38;5.78;;;4.50;;
13941;SDS011;7043;51.630;7.254;2024-02-16T11:47:05;6.68;;;4.38;;
13941;SDS011;7043;51.630;7.254;2024-02-16T11:49:34;7.40;;;4.45;;
13941;SDS011;7043;51.630;7.254;2024-02-16T11:52:00;5.75;;;3.95;;
13941;SDS011;7043;51.630;7.254;2024-02-16T11:54:26;9.35;;;4.57;;
13941;SDS011;7043;51.630;7.254;2024-02-16T11:56:52;5.43;;;4.50;;
13941;SDS011;7043;51.630;7.254;2024-02-16T11:59:19;6.72;;;4.32;;
13941;SDS011;7043;51.630;7.254;2024-02-16T12:01:51;7.50;;;4.17;;
13941;SDS011;7043;51.630;7.254;2024-02-16T12:06:47;9.48;;;4.50;;
13941;SDS011;7043;51.630;7.254;2024-02-16T12:09:16;6.03;;;4.32;;
13941;SDS011;7043;51.630;7.254;2024-02-16T12:11:42;7.78;;;4.25;;
13941;SDS011;7043;51.630;7.254;2024-02-16T12:14:08;5.00;;;4.20;;
13941;SDS011;7043;51.630;7.254;2024-02-16T12:16:34;9.80;;;4.40;;
13941;SDS011;7043;51.630;7.254;2024-02-16T12:19:04;7.57;;;4.47;;
13941;SDS011;7043;51.630;7.254;2024-02-16T12:21:31;6.00;;;4.00;;
13941;SDS011;7043;51.630;7.254;2024-02-16T12:23:57;6.57;;;4.07;;
13941;SDS011;7043;51.630;7.254;2024-02-16T12:26:23;6.15;;;3.95;;
13941;SDS011;7043;51.630;7.254;2024-02-16T12:28:49;6.65;;;4.47;;
13941;SDS011;7043;51.630;7.254;2024-02-16T12:31:18;8.43;;;4.40;;
13941;SDS011;7043;51.630;7.254;2024-02-16T12:33:45;7.03;;;4.25;;
13941;SDS011;7043;51.630;7.254;2024-02-16T12:36:11;6.90;;;4.55;;
13941;SDS011;7043;51.630;7.254;2024-02-16T12:38:37;7.32;;;4.75;;
13941;SDS011;7043;51.630;7.254;2024-02-16T12:41:03;7.15;;;4.70;;
13941;SDS011;7043;51.630;7.254;2024-02-16T12:43:29;6.63;;;4.63;;
13941;SDS011;7043;51.630;7.254;2024-02-16T12:45:55;7.38;;;5.40;;
13941;SDS011;7043;51.630;7.254;2024-02-16T12:48:21;7.43;;;6.55;;
13941;SDS011;7043;51.630;7.254;2024-02-16T12:50:47;13.02;;;6.63;;
13941;SDS011;7043;51.630;7.254;2024-02-16T12:53:14;11.13;;;7.20;;
13941;SDS011;7043;51.630;7.254;2024-02-16T12:55:40;11.38;;;8.10;;
13941;SDS011;7043;51.630;7.254;2024-02-16T12:58:06;12.10;;;8.20;;
13941;SDS011;7043;51.630;7.254;2024-02-16T13:00:32;14.63;;;7.57;;
13941;SDS011;7043;51.630;7.254;2024-02-16T13:02:58;11.43;;;7.43;;
13941;SDS011;7043;51.630;7.254;2024-02-16T13:05:24;11.77;;;8.65;;
13941;SDS011;7043;51.630;7.254;2024-02-16T13:07:50;11.30;;;7.60;;
13941;SDS011;7043;51.630;7.254;2024-02-16T13:10:16;12.65;;;7.10;;
13941;SDS011;7043;51.630;7.254;2024-02-16T13:12:43;11.65;;;7.07;;
13941;SDS011;7043;51.630;7.254;2024-02-16T13:15:09;10.38;;;8.07;;
13941;SDS011;7043;51.630;7.254;2024-02-16T13:17:35;12.32;;;8.15;;
13941;SDS011;7043;51.630;7.254;2024-02-16T13:20:01;10.05;;;8.00;;
13941;SDS011;7043;51.630;7.254;2024-02-16T13:22:35;11.57;;;8.45;;
13941;SDS011;7043;51.630;7.254;2024-02-16T13:25:02;13.05;;;9.00;;
13941;SDS011;7043;51.630;7.254;2024-02-16T13:27:28;14.27;;;10.15;;
13941;SDS011;7043;51.630;7.254;2024-02-16T13:29:54;13.77;;;9.27;;
13941;SDS011;7043;51.630;7.254;2024-02-16T13:32:20;12.48;;;8.82;;
13941;SDS011;7043;51.630;7.254;2024-02-16T13:34:47;14.25;;;10.40;;
13941;SDS011;7043;51.630;7.254;2024-02-16T13:37:13;12.90;;;10.02;;
13941;SDS011;7043;51.630;7.254;2024-02-16T13:39:39;11.05;;;9.48;;
13941;SDS011;7043;51.630;7.254;2024-02-16T13:42:05;13.65;;;9.75;;
13941;SDS011;7043;51.630;7.254;2024-02-16T13:44:31;12.55;;;10.55;;
13941;SDS011;7043;51.630;7.254;2024-02-16T13:46:57;13.00;;;9.68;;
13941;SDS011;7043;51.630;7.254;2024-02-16T13:49:25;12.98;;;11.48;;
13941;SDS011;7043;51.630;7.254;2024-02-16T13:51:51;17.40;;;12.93;;
13941;SDS011;7043;51.630;7.254;2024-02-16T13:54:17;15.70;;;12.68;;
13941;SDS011;7043;51.630;7.254;2024-02-16T13:56:43;17.55;;;12.52;;
13941;SDS011;7043;51.630;7.254;2024-02-16T13:59:09;17.23;;;13.33;;
13941;SDS011;7043;51.630;7.254;2024-02-16T14:01:35;16.27;;;13.40;;
13941;SDS011;7043;51.630;7.254;2024-02-16T14:04:02;18.00;;;15.67;;
13941;SDS011;7043;51.630;7.254;2024-02-16T14:06:29;20.63;;;17.30;;
13941;SDS011;7043;51.630;7.254;2024-02-16T14:08:58;21.83;;;18.00;;
13941;SDS011;7043;51.630;7.254;2024-02-16T14:11:25;22.20;;;18.43;;
13941;SDS011;7043;51.630;7.254;2024-02-16T14:13:51;21.97;;;19.67;;
13941;SDS011;7043;51.630;7.254;2024-02-16T14:16:18;23.23;;;20.70;;
13941;SDS011;7043;51.630;7.254;2024-02-16T14:18:44;23.67;;;20.40;;
13941;SDS011;7043;51.630;7.254;2024-02-16T14:21:10;21.70;;;19.47;;
13941;SDS011;7043;51.630;7.254;2024-02-16T14:23:36;22.53;;;20.13;;
13941;SDS011;7043;51.630;7.254;2024-02-16T14:26:02;22.83;;;20.08;;
13941;SDS011;7043;51.630;7.254;2024-02-16T14:28:29;22.07;;;19.73;;
13941;SDS011;7043;51.630;7.254;2024-02-16T14:30:55;24.10;;;21.67;;
13941;SDS011;7043;51.630;7.254;2024-02-16T14:33:22;21.63;;;18.60;;
13941;SDS011;7043;51.630;7.254;2024-02-16T14:35:48;20.30;;;18.33;;
13941;SDS011;7043;51.630;7.254;2024-02-16T14:38:15;18.63;;;16.80;;
13941;SDS011;7043;51.630;7.254;2024-02-16T14:40:41;19.38;;;17.38;;
13941;SDS011;7043;51.630;7.254;2024-02-16T14:43:07;18.43;;;16.57;;
13941;SDS011;7043;51.630;7.254;2024-02-16T14:45:33;18.27;;;16.47;;
13941;SDS011;7043;51.630;7.254;2024-02-16T14:47:59;17.90;;;16.00;;
13941;SDS011;7043;51.630;7.254;2024-02-16T14:50:25;17.33;;;15.63;;
13941;SDS011;7043;51.630;7.254;2024-02-16T14:52:51;17.03;;;15.47;;
13941;SDS011;7043;51.630;7.254;2024-02-16T14:55:17;17.13;;;15.32;;
13941;SDS011;7043;51.630;7.254;2024-02-16T14:57:43;16.80;;;15.05;;
13941;SDS011;7043;51.630;7.254;2024-02-16T15:00:10;15.67;;;13.87;;
13941;SDS011;7043;51.630;7.254;2024-02-16T15:02:37;16.93;;;15.33;;